Latest Weather Observations for Cape Byron

IDN60801

Issued at 8:04 am EDT Sunday 1 February 2015 (issued every 30 minutes, with the page automatically refreshed every 10 minutes)

About weather observations | Map of weather stations | Latest weather observations for NSW | Other Formats
Station Details ID: 058216 Name: CAPE BYRON AWS Lat: -28.64 Lon: 153.64 Height: 95.0 m
Data from the previous 72 hours. | See also: Recent months at Cape Byron
Date/Time
EDT
Temp
°C
App
Temp
°C
Dew
Point
Rel
Hum
%
Delta-T
°C
Wind Press
QNH
hPa
Press
MSL
hPa
Rain
since 9 am
mm
Dir
 
Spd
km/h
Gust
km/h
Spd
kts
Gust
kts
01/08:00am 22.4 22.0 19.4 83 1.9 WSW 20 30 11 16 1007.7 1007.2 3.8
01/07:30am 21.9 21.3 18.9 83 1.9 W 20 30 11 16 1007.3 1006.7 3.8
01/07:00am 21.6 20.1 18.6 83 1.9 W 24 32 13 17 1007.0 1006.4 3.8
01/06:30am 21.4 20.4 18.8 85 1.6 W 22 30 12 16 1006.9 1006.3 3.8
01/06:00am 21.1 19.9 18.5 85 1.6 W 22 28 12 15 1006.5 1005.9 3.8
01/05:30am 21.4 20.6 18.4 83 1.9 W 20 26 11 14 1006.2 1005.6 3.8
01/05:00am 21.5 20.6 18.3 82 2.0 W 20 26 11 14 1006.2 1005.6 3.8
01/04:30am 21.6 20.4 18.4 82 2.0 W 22 30 12 16 1006.3 1005.7 3.8
01/04:00am 21.5 21.2 18.3 82 2.0 W 17 22 9 12 1006.4 1005.8 3.8
01/03:30am 21.5 21.8 18.7 84 1.8 W 15 20 8 11 1006.5 1005.9 3.8
01/03:00am 21.4 22.9 18.8 85 1.6 NW 9 15 5 8 1006.5 1005.9 3.8
01/02:30am 21.6 22.4 19.0 85 1.6 WNW 13 17 7 9 1006.6 1006.0 3.8
01/02:00am 21.8 22.9 18.8 83 1.9 WNW 11 17 6 9 1006.7 1006.1 3.8
01/01:30am 21.7 21.7 18.9 84 1.8 WNW 17 22 9 12 1006.8 1006.2 3.8
01/01:00am 21.9 22.6 18.9 83 1.9 W 13 17 7 9 1007.2 1006.6 3.8
01/12:30am 23.0 23.6 18.5 76 2.8 W 13 15 7 8 1007.7 1007.2 3.8
01/12:00am 23.2 23.5 18.7 76 2.9 W 15 19 8 10 1007.9 1007.4 3.8
 
Date/Time
EDT
Temp
°C
App
Temp
°C
Dew
Point
Rel
Hum
%
Delta-T
°C
Wind Press
QNH
hPa
Press
MSL
hPa
Rain
since 9 am
mm
Dir
 
Spd
km/h
Gust
km/h
Spd
kts
Gust
kts
31/11:30pm 22.0 21.4 16.7 72 3.2 NW 15 17 8 9 1007.7 1007.2 3.8
31/11:00pm 22.1 22.6 17.5 75 2.9 WNW 11 20 6 11 1007.6 1007.1 3.8
31/10:30pm 22.8 23.2 18.1 75 2.9 NE 13 20 7 11 1006.9 1006.3 3.8
31/10:00pm 23.1 22.8 18.2 74 3.1 NNW 17 30 9 16 1006.7 1006.1 3.8
31/09:36pm 23.0 21.0 19.2 79 2.4 N 28 46 15 25 1006.2 1005.6 3.8
31/09:30pm 23.1 20.8 19.3 79 2.4 N 30 46 16 25 1006.1 1005.5 3.8
31/09:00pm 22.9 20.1 19.1 79 2.4 N 32 48 17 26 1006.0 1005.4 3.8
31/08:30pm 23.4 20.3 18.9 76 2.9 N 33 43 18 23 1005.8 1005.2 3.8
31/08:00pm 24.7 23.8 20.6 78 2.7 N 26 35 14 19 1005.2 1004.7 3.8
31/07:30pm 24.9 22.7 18.8 69 3.9 NNE 28 41 15 22 1004.9 1004.4 3.8
31/07:00pm 24.9 24.9 20.2 75 3.1 NE 20 32 11 17 1004.7 1004.2 3.8
31/06:30pm 24.9 23.2 19.7 73 3.4 NE 28 39 15 21 1004.5 1004.0 3.8
31/06:00pm 23.8 21.7 19.7 78 2.7 NE 30 46 16 25 1004.2 1003.7 3.8
31/05:34pm 22.6 20.9 19.9 85 1.7 ENE 28 48 15 26 1004.2 1003.7 3.8
31/05:30pm 22.9 23.6 20.4 86 1.6 E 17 37 9 20 1004.2 1003.7 3.6
31/05:13pm 23.8 23.6 19.7 78 2.6 NW 20 57 11 31 1004.6 1004.1 1.0
31/05:00pm 26.0 25.4 21.2 75 3.2 NE 26 35 14 19 1004.7 1004.2 0.0
31/04:30pm 26.2 27.5 20.1 69 4.0 NE 13 24 7 13 1005.1 1004.6 0.0
31/04:13pm 26.5 25.3 20.8 71 3.8 NNE 28 46 15 25 1004.2 1003.7 0.0
31/04:00pm 26.8 24.9 21.3 72 3.7 NNE 33 50 18 27 1003.2 1002.7 0.0
31/03:30pm 27.0 25.4 21.5 72 3.7 NNE 32 50 17 27 1003.9 1003.4 0.0
31/03:00pm 27.1 25.4 21.4 71 3.8 NNE 32 50 17 27 1004.1 1003.6 0.0
31/02:59pm 27.0 25.3 21.3 71 3.8 NNE 32 50 17 27 1004.1 1003.6 0.0
31/02:30pm 27.1 25.6 20.9 69 4.1 NNE 30 44 16 24 1004.7 1004.2 0.0
31/02:00pm 27.1 26.2 20.7 68 4.2 NNE 26 41 14 22 1005.6 1005.0 0.0
31/01:30pm 27.2 27.1 20.8 68 4.2 NNE 22 33 12 18 1006.0 1005.4 0.0
31/01:00pm 27.3 27.1 20.6 67 4.4 NNE 22 33 12 18 1006.2 1005.6 0.0
31/12:30pm 27.4 27.7 20.5 66 4.6 NNE 19 32 10 17 1006.6 1006.0 0.0
31/12:00pm 27.5 27.9 20.6 66 4.6 NNE 19 26 10 14 1007.0 1006.4 0.0
31/11:30am 28.1 29.5 20.4 63 5.1 N 13 22 7 12 1007.4 1006.8 0.0
31/11:00am 27.3 28.9 19.1 61 5.3 NNE 9 15 5 8 1007.5 1006.9 0.0
31/10:30am 26.9 28.6 19.3 63 4.9 ENE 9 11 5 6 1007.9 1007.4 0.0
31/10:00am 25.8 27.7 19.7 69 4.0 ESE 9 11 5 6 1008.0 1007.5 0.0
31/09:30am 25.0 26.7 18.4 66 4.2 SE 7 11 4 6 1008.3 1007.8 0.0
31/09:00am 24.5 26.4 18.9 71 3.6 NNE 7 11 4 6 1008.3 1007.8 0.0
31/08:30am 23.9 25.6 18.5 72 3.4 N 7 11 4 6 1008.1 1007.6 0.0
31/08:00am 23.5 25.2 18.4 73 3.2 NNW 7 11 4 6 1008.0 1007.5 0.0
31/07:30am 23.6 24.7 18.9 75 3.0 N 11 20 6 11 1007.6 1007.1 0.0
31/07:00am 23.2 23.4 18.5 75 3.0 N 15 20 8 11 1007.3 1006.7 0.0
31/06:30am 22.9 22.6 18.2 75 3.0 N 17 24 9 13 1007.1 1006.5 0.0
31/06:00am 23.0 22.3 18.3 75 3.0 N 19 26 10 14 1006.6 1006.0 0.0
31/05:30am 23.3 22.5 18.4 74 3.1 N 20 32 11 17 1006.3 1005.7 0.0
31/05:00am 23.4 22.2 18.5 74 3.1 N 22 32 12 17 1006.1 1005.5 0.0
31/04:30am 23.4 22.6 18.1 72 3.3 N 19 30 10 16 1005.9 1005.3 0.0
31/04:00am 23.3 22.5 18.4 74 3.1 N 20 32 11 17 1005.8 1005.2 0.0
31/03:30am 23.3 22.9 18.8 76 2.9 NNW 19 30 10 16 1005.8 1005.2 0.0
31/03:00am 23.3 23.0 19.5 79 2.4 N 20 37 11 20 1005.9 1005.3 0.0
31/02:30am 23.3 21.3 19.2 78 2.6 N 28 41 15 22 1006.1 1005.5 0.0
31/02:00am 23.5 22.0 19.4 78 2.6 N 26 35 14 19 1006.4 1005.8 0.0
31/01:30am 23.5 22.3 19.2 77 2.8 N 24 35 13 19 1006.8 1006.2 0.0
31/01:00am 23.6 22.3 19.1 76 2.9 N 24 39 13 21 1006.9 1006.3 0.0
31/12:30am 23.5 22.2 19.0 76 2.9 N 24 33 13 18 1007.2 1006.6 0.0
31/12:00am 23.6 22.3 19.1 76 2.9 N 24 33 13 18 1007.4 1006.8 0.0
 
Date/Time
EDT
Temp
°C
App
Temp
°C
Dew
Point
Rel
Hum
%
Delta-T
°C
Wind Press
QNH
hPa
Press
MSL
hPa
Rain
since 9 am
mm
Dir
 
Spd
km/h
Gust
km/h
Spd
kts
Gust
kts
30/11:30pm 23.7 21.9 18.8 74 3.1 N 26 37 14 20 1007.7 1007.2 0.0
30/11:00pm 23.9 22.2 19.0 74 3.1 N 26 39 14 21 1007.7 1007.2 0.0
30/10:30pm 24.0 21.9 18.9 73 3.3 N 28 44 15 24 1007.7 1007.2 0.0
30/10:00pm 24.1 21.7 19.2 74 3.1 N 30 44 16 24 1007.5 1006.9 0.0
30/09:30pm 24.2 21.8 19.1 73 3.3 N 30 41 16 22 1007.3 1006.7 0.0
30/09:00pm 24.4 21.5 19.2 73 3.3 N 33 46 18 25 1007.1 1006.5 0.0
30/08:30pm 24.5 21.3 18.7 70 3.7 N 33 46 18 25 1007.0 1006.4 0.0
30/08:00pm 24.4 21.9 18.8 71 3.6 N 30 44 16 24 1006.9 1006.3 0.0
30/07:30pm 24.5 21.0 18.7 70 3.7 N 35 48 19 26 1006.6 1006.0 0.0
30/07:00pm 24.9 21.7 18.1 66 4.3 N 32 44 17 24 1006.3 1005.7 0.0
30/06:30pm 25.3 22.6 18.5 66 4.3 N 30 44 16 24 1006.0 1005.4 0.0
30/06:00pm 25.4 22.4 17.8 62 4.8 NNE 30 41 16 22 1005.9 1005.3 0.0
30/05:30pm 25.3 22.2 17.5 62 4.9 NNE 30 41 16 22 1005.9 1005.3 0.0
30/05:00pm 25.5 22.9 17.7 62 4.9 NNE 28 41 15 22 1006.1 1005.5 0.0
30/04:30pm 24.9 23.2 18.1 66 4.3 NNE 24 35 13 19 1006.5 1005.9 0.0
30/04:00pm 25.2 23.9 18.2 65 4.4 NNE 22 33 12 18 1006.9 1006.3 0.0
30/03:30pm 25.5 24.0 17.7 62 4.9 NNE 22 33 12 18 1007.1 1006.5 0.0
30/03:00pm 26.1 24.1 17.5 59 5.4 NNE 24 37 13 20 1007.3 1006.7 0.0
30/02:30pm 26.7 23.7 18.6 61 5.2 NE 32 39 17 21 1007.6 1007.1 0.0
30/02:00pm 26.4 23.4 16.9 56 5.9 NE 28 35 15 19 1008.1 1007.6 0.0
30/01:30pm 27.2 24.9 17.7 56 6.0 NE 26 32 14 17 1008.6 1008.1 0.0
30/01:00pm 27.8 26.0 17.9 54 6.3 NE 24 30 13 16 1008.8 1008.3 0.0
30/12:30pm 27.7 26.8 18.1 56 6.1 NE 20 26 11 14 1009.3 1008.8 0.0
30/12:00pm 26.1 25.5 16.6 55 5.9 NE 15 19 8 10 1009.6 1009.1 0.0
30/11:30am 26.3 26.0 16.5 54 6.1 NNE 13 17 7 9 1009.8 1009.3 0.0
30/11:00am 26.2 26.4 16.7 56 5.9 NNE 11 15 6 8 1010.0 1009.5 0.0
30/10:30am 25.5 26.4 16.6 58 5.5 ENE 7 9 4 5 1010.1 1009.6 0.0
30/10:00am 24.1 25.5 16.4 62 4.7 SW 4 9 2 5 1010.2 1009.7 0.0
30/09:30am 23.6 24.3 17.1 67 4.0 SW 9 13 5 7 1010.3 1009.8 0.0
30/09:00am 22.4 21.7 16.4 69 3.7 WSW 15 20 8 11 1010.3 1009.8 0.0
30/08:30am 21.5 20.5 16.5 73 3.0 SW 17 20 9 11 1010.2 1009.7 0.0
30/08:00am 20.6 19.3 15.8 74 2.9 SW 17 24 9 13 1010.1 1009.6 0.0
30/07:30am 20.0 19.0 15.6 76 2.6 WSW 15 20 8 11 1009.9 1009.4 0.0
30/07:00am 19.4 17.3 15.3 77 2.4 WSW 20 24 11 13 1009.7 1009.2 0.0
30/06:30am 19.2 17.3 15.3 78 2.3 WSW 19 24 10 13 1009.4 1008.9 0.0
30/06:00am 19.3 17.2 15.2 77 2.4 WSW 20 24 11 13 1009.3 1008.8 0.0
30/05:30am 19.6 17.5 15.3 76 2.5 WSW 20 26 11 14 1009.2 1008.7 0.0
30/05:00am 20.1 18.0 14.7 71 3.2 SW 19 24 10 13 1009.1 1008.6 0.0
30/04:30am 21.3 19.8 14.2 64 4.2 SW 15 19 8 10 1009.2 1008.7 0.0
30/04:00am 22.7 20.7 14.0 58 5.1 SSE 17 20 9 11 1009.3 1008.8 0.0
30/03:30am 22.9 20.9 13.9 57 5.3 SSE 17 26 9 14 1009.6 1009.1 0.0
30/03:00am 22.8 20.2 13.8 57 5.3 SSE 20 26 11 14 1009.7 1009.2 0.0
30/02:30am 22.6 20.0 15.0 62 4.5 SE 22 30 12 16 1010.0 1009.5 0.0
30/02:00am 22.8 20.7 15.1 62 4.6 SSE 20 28 11 15 1010.2 1009.7 0.0
30/01:30am 22.9 19.1 14.7 60 4.9 SE 28 35 15 19 1010.3 1009.8 0.0
30/01:00am 22.9 18.7 14.7 60 4.9 ESE 30 37 16 20 1010.3 1009.8 0.0
30/12:30am 22.9 18.9 15.2 62 4.6 SE 30 39 16 21 1010.5 1010.0 0.0
30/12:00am 22.8 18.4 15.1 62 4.6 ESE 32 39 17 21 1010.9 1010.4 0.0
 
Date/Time
EDT
Temp
°C
App
Temp
°C
Dew
Point
Rel
Hum
%
Delta-T
°C
Wind Press
QNH
hPa
Press
MSL
hPa
Rain
since 9 am
mm
Dir
 
Spd
km/h
Gust
km/h
Spd
kts
Gust
kts
29/11:30pm 22.9 18.7 16.2 66 4.1 ESE 33 44 18 24 1010.9 1010.4 0.0
29/11:00pm 22.6 19.0 15.2 63 4.4 SE 28 39 15 21 1011.2 1010.7 0.0
29/10:30pm 23.0 19.0 15.3 62 4.6 SE 30 39 16 21 1011.0 1010.5 0.0
29/10:00pm 23.0 18.7 15.3 62 4.6 SE 32 44 17 24 1010.8 1010.3 0.0
29/09:30pm 23.0 18.3 15.8 64 4.4 SE 35 44 19 24 1010.6 1010.1 0.0
29/09:00pm 23.3 19.4 16.4 65 4.2 SE 32 41 17 22 1010.4 1009.9 0.0
29/08:30pm 23.4 19.6 16.7 66 4.1 ESE 32 39 17 21 1010.2 1009.7 0.0
29/08:00pm 23.5 19.0 16.3 64 4.4 SE 35 44 19 24 1009.7 1009.2 0.0
29/07:30pm 23.5 20.2 16.1 63 4.5 SE 28 41 15 22 1009.3 1008.8 0.0
29/07:00pm 23.5 20.2 16.1 63 4.5 SE 28 39 15 21 1008.9 1008.4 0.0
29/06:30pm 24.1 20.8 16.9 64 4.5 SE 30 39 16 21 1008.6 1008.1 0.0
29/06:00pm 24.5 21.1 15.7 58 5.4 SE 28 37 15 20 1008.3 1007.8 0.0
29/05:30pm 24.7 22.1 15.9 58 5.4 SSE 24 32 13 17 1008.1 1007.6 0.0
29/05:00pm 24.8 22.1 15.7 57 5.5 SSE 24 33 13 18 1008.1 1007.6 0.0
29/04:30pm 24.7 22.3 16.4 60 5.1 SSE 24 37 13 20 1008.2 1007.7 0.0
29/04:00pm 24.5 21.2 16.0 59 5.2 S 28 35 15 19 1008.4 1007.9 0.0
29/03:30pm 24.5 22.0 17.0 63 4.7 S 26 33 14 18 1008.4 1007.9 0.0
29/03:00pm 23.9 19.9 16.2 62 4.7 S 32 35 17 19 1008.7 1008.2 0.0
29/02:30pm 24.0 20.3 17.0 65 4.3 S 32 39 17 21 1008.8 1008.3 0.0
29/02:00pm 23.6 19.5 16.4 64 4.4 S 33 37 18 20 1009.0 1008.5 0.0
29/01:30pm 23.5 19.5 16.8 66 4.1 SSW 33 39 18 21 1009.2 1008.7 0.0
29/01:00pm 23.3 18.9 15.6 62 4.7 SSW 33 41 18 22 1009.4 1008.9 0.0
29/12:30pm 23.2 18.6 16.0 64 4.4 SSW 35 41 19 22 1009.7 1009.2 0.0
29/12:00pm 23.2 18.4 16.5 66 4.1 SSW 37 44 20 24 1009.6 1009.1 0.0
29/11:30am 22.7 18.0 15.8 65 4.2 SSW 35 48 19 26 1009.9 1009.4 0.0
29/11:00am 22.1 18.9 16.4 70 3.5 SSW 28 39 15 21 1009.9 1009.4 0.0
29/10:30am 21.3 18.6 15.6 70 3.4 SW 24 32 13 17 1010.1 1009.6 0.0
29/10:00am 21.4 18.0 15.7 70 3.4 SW 28 39 15 21 1010.1 1009.6 0.0
29/09:30am 21.0 16.8 14.6 67 3.8 SW 30 39 16 21 1009.9 1009.4 0.0
29/09:00am 20.5 15.6 13.7 65 3.9 SW 32 41 17 22 1009.8 1009.3 0.8
29/08:30am 19.8 14.6 12.8 64 4.0 SW 32 41 17 22 1009.6 1009.1 0.8

Other Formats:

Comma delimited format used in spreadsheet applications
http://www.bom.gov.au/fwo/IDN60801/IDN60801.94599.axf

JavaScript Object Notation format (JSON) in row-major order
http://www.bom.gov.au/fwo/IDN60801/IDN60801.94599.json